• Join FlightAware (Why Join?)
  • Login
  • US Flag 
05:13PM EDT


 

Airport Tracker/Info


-or-


 

Live Flight TrackerFlight Track Log ✈ SWA1035 ✈ 01-May-2013 ✈ KTPA - KMCI

Flight Track Log - Related Links

Times and Time Zones

All times are in EDT time to prevent confusion due to time zone crossing. See the SWA1035 flight status page for this flight to view local times or setup timezone preferences in your user account.

Time Position Orientation Groundspeed Altitude Reporting Facility
EDT Latitude Longitude Course Direction KTS MPH feet Rate Location/Type
11:04AM 27.9667 -82.5500 254° West 162 186 800  Level Tampa TRACON
11:07AM 27.9472 -82.6247 254° West 377 434 9,200 2,880 Climbing Jacksonville Center
11:08AM 28.0203 -82.6292 357° North 308 354 11,900 2,220 Climbing Jacksonville Center
11:09AM 28.0892 -82.6339 357° North 289 333 13,700 1,680 Climbing Jacksonville Center
11:10AM 28.1747 -82.6667 341° North 294 338 15,300 2,100 Climbing Jacksonville Center
11:11AM 28.2708 -82.7181 335° Northwest 336 387 18,000 2,460 Climbing Jacksonville Center
11:12AM 28.3689 -82.7675 336° Northwest 371 427 20,300 2,280 Climbing Jacksonville Center
11:13AM 28.4839 -82.7981 347° North 398 458 22,600 2,100 Climbing Jacksonville Center
11:14AM 28.5964 -82.8264 348° North 405 466 24,600 1,860 Climbing Jacksonville Center
11:15AM 28.6967 -82.9019 327° Northwest 410 472 26,400 1,740 Climbing Jacksonville Center
11:16AM 28.7969 -82.9825 325° Northwest 424 488 28,100 1,500 Climbing Jacksonville Center
11:17AM 28.8989 -83.0681 324° Northwest 443 510 29,500 1,500 Climbing Jacksonville Center
11:18AM 29.0053 -83.1514 326° Northwest 457 526 31,100 1,740 Climbing Jacksonville Center
11:19AM 29.1178 -83.2206 332° Northwest 462 532 33,000 1,860 Climbing Jacksonville Center
11:20AM 29.2325 -83.2781 336° Northwest 452 520 34,900 1,260 Climbing Jacksonville Center
11:21AM 29.3514 -83.3406 335° Northwest 452 520 35,600 540 Climbing Jacksonville Center
11:22AM 29.4681 -83.4078 333° Northwest 464 534 36,000 180 Climbing Jacksonville Center
11:23AM 29.5700 -83.4967 323° Northwest 464 534 36,000  Level Jacksonville Center
11:24AM 29.6675 -83.5858 322° Northwest 459 528 36,000  Level Jacksonville Center
11:25AM 29.7694 -83.6750 323° Northwest 459 528 36,000  Level Jacksonville Center
11:26AM 29.8711 -83.7644 323° Northwest 459 528 36,000 480 Level Jacksonville Center
11:27AM 29.9706 -83.8542 322° Northwest 459 528 37,000 960 Climbing Jacksonville Center
11:28AM 30.0806 -83.9511 323° Northwest 459 528 38,000 480 Climbing Jacksonville Center
11:29AM 30.1819 -84.0411 323° Northwest 459 528 38,000  Level Jacksonville Center
11:30AM 30.2833 -84.1314 322° Northwest 459 528 38,000  Level Jacksonville Center
11:31AM 30.3828 -84.2169 323° Northwest 454 522 38,000  Level Jacksonville Center
11:32AM 30.4800 -84.3075 321° Northwest 454 522 38,000  Level Jacksonville Center
11:33AM 30.5689 -84.3933 320° Northwest 454 522 38,000  Level Jacksonville Center
11:34AM 30.6614 -84.4961 316° Northwest 454 522 38,000  Level Jacksonville Center
11:35AM 30.7519 -84.5944 317° Northwest 459 528 38,000  Level Jacksonville Center
11:36AM 30.8464 -84.7097 314° West 448 516 38,000  Level Jacksonville Center
11:37AM 30.9369 -84.8133 316° Northwest 448 516 38,000  Level Jacksonville Center
11:39AM 31.1372 -85.0431 316° Northwest 456 525 38,000  Level Atlanta Center
11:40AM 31.2242 -85.1461 315° West 451 519 38,000  Level Atlanta Center
11:41AM 31.3150 -85.2542 315° West 451 519 38,000  Level Atlanta Center
11:42AM 31.4058 -85.3550 317° Northwest 451 519 38,000  Level Atlanta Center
11:43AM 31.4922 -85.4586 314° West 451 519 38,000  Level Atlanta Center
11:44AM 31.5786 -85.5575 316° Northwest 446 513 38,000  Level Atlanta Center
11:45AM 31.6650 -85.6589 315° West 441 507 38,000  Level Atlanta Center
11:46AM 31.7350 -85.7433 314° West 441 507 38,000  Level Atlanta Center
11:47AM 31.8375 -85.8675 314° West 441 507 38,000  Level Atlanta Center
11:48AM 31.9256 -85.9719 315° West 441 507 38,000  Level Atlanta Center
11:49AM 32.0117 -86.0719 315° West 436 502 38,000  Level Atlanta Center
11:50AM 32.0894 -86.1667 314° West 431 496 38,000  Level Atlanta Center
11:51AM 32.1978 -86.2872 317° Northwest 452 520 38,000  Level Atlanta Center
11:52AM 32.2814 -86.3900 314° West 439 505 38,000  Level Atlanta Center
11:53AM 32.3692 -86.5031 313° West 444 511 38,000  Level Atlanta Center
11:54AM 32.4567 -86.6136 313° West 451 519 38,000  Level Atlanta Center
11:55AM 32.5319 -86.7069 314° West 446 513 38,000  Level Atlanta Center
11:56AM 32.6233 -86.8183 314° West 452 520 38,000  Level Atlanta Center
11:57AM 32.7064 -86.9294 312° West 452 520 38,000  Level Atlanta Center
11:58AM 32.7975 -87.0414 314° West 452 520 38,000  Level Atlanta Center
11:59AM 32.8825 -87.1531 312° West 452 520 38,000  Level Atlanta Center
12:00PM 32.9481 -87.2814 301° West 452 520 38,000  Level Atlanta Center
12:03PM 33.1372 -87.5539 310° West 447 514 38,000  Level Memphis Center
12:04PM 33.2250 -87.6653 313° West 460 529 38,000  Level Memphis Center
12:05PM 33.3131 -87.7769 313° West 460 529 38,000  Level Memphis Center
12:06PM 33.4008 -87.8864 314° West 460 529 38,000  Level Memphis Center
12:07PM 33.4908 -87.9983 314° West 465 535 38,000  Level Memphis Center
12:08PM 33.5761 -88.1083 313° West 465 535 38,000  Level Memphis Center
12:09PM 33.6658 -88.2208 314° West 465 535 38,000  Level Memphis Center
12:10PM 33.7514 -88.3361 312° West 465 535 38,000  Level Memphis Center
12:11PM 33.8408 -88.4464 314° West 465 535 38,000  Level Memphis Center
12:12PM 33.9281 -88.5597 313° West 465 535 38,000  Level Memphis Center
12:13PM 34.0150 -88.6706 313° West 465 535 38,000  Level Memphis Center
12:14PM 34.1022 -88.7869 312° West 465 535 38,000  Level Memphis Center
12:15PM 34.1892 -88.8908 315° West 453 521 38,000  Level Memphis Center
12:16PM 34.2739 -89.0050 312° West 448 516 38,000  Level Memphis Center
12:17PM 34.3628 -89.1192 313° West 463 533 38,000  Level Memphis Center
12:18PM 34.4386 -89.2189 313° West 463 533 38,000  Level Memphis Center
12:19PM 34.5253 -89.3336 313° West 463 533 38,000  Level Memphis Center
12:20PM 34.6097 -89.4461 312° West 456 525 38,000  Level Memphis Center
12:21PM 34.6917 -89.5514 313° West 449 517 38,000  Level Memphis Center
12:22PM 34.7694 -89.6567 312° West 444 511 38,000  Level Memphis Center
12:23PM 34.8600 -89.7800 312° West 449 517 38,000  Level Memphis Center
12:24PM 34.9628 -89.9111 314° West 470 541 38,000  Level Memphis Center
12:25PM 35.0444 -90.0222 312° West 459 528 38,000  Level Memphis Center
12:26PM 35.1197 -90.1261 312° West 453 521 38,000  Level Memphis Center
12:27PM 35.2014 -90.2375 312° West 453 521 38,000  Level Memphis Center
12:28PM 35.2869 -90.3544 312° West 453 521 38,000  Level Memphis Center
12:29PM 35.3681 -90.4664 312° West 453 521 38,000  Level Memphis Center
12:30PM 35.4494 -90.5814 311° West 453 521 38,000  Level Memphis Center
12:31PM 35.5347 -90.6989 312° West 453 521 38,000  Level Memphis Center
12:32PM 35.6261 -90.8244 312° West 453 521 38,000  Level Memphis Center
12:33PM 35.7006 -90.9372 309° West 453 521 38,000  Level Memphis Center
12:34PM 35.7833 -91.0531 311° West 447 514 38,000  Level Memphis Center
12:35PM 35.8744 -91.1639 315° West 452 520 38,000  Level Memphis Center
12:36PM 35.9656 -91.2650 318° Northwest 452 520 38,000  Level Memphis Center
12:37PM 36.0567 -91.3711 317° Northwest 452 520 38,000  Level Memphis Center
12:38PM 36.1517 -91.4778 318° Northwest 452 520 38,000  Level Memphis Center
12:39PM 36.2403 -91.5819 317° Northwest 452 520 38,000  Level Memphis Center
12:40PM 36.3350 -91.6864 318° Northwest 452 520 38,000  Level Memphis Center
12:41PM 36.4217 -91.7781 320° Northwest 447 514 38,000  Level Memphis Center
12:42PM 36.5142 -91.8828 318° Northwest 447 514 38,000  Level Memphis Center
12:44PM 36.7392 -92.1378 318° Northwest 451 519 38,000  Level Kansas City Center
12:45PM 36.8506 -92.2661 317° Northwest 451 519 38,000  Level Kansas City Center
12:46PM 36.9431 -92.3725 317° Northwest 450 518 38,000  Level Kansas City Center
12:47PM 37.0342 -92.4775 317° Northwest 445 512 38,000  Level Kansas City Center
12:48PM 37.1242 -92.5828 317° Northwest 441 507 38,000  Level Kansas City Center
12:49PM 37.2150 -92.6883 317° Northwest 441 507 38,000  Level Kansas City Center
12:50PM 37.3058 -92.7931 317° Northwest 441 507 38,000  Level Kansas City Center
12:51PM 37.3958 -92.8992 317° Northwest 440 506 38,000  Level Kansas City Center
12:52PM 37.4861 -93.0053 317° Northwest 440 506 38,000  Level Kansas City Center
12:53PM 37.5936 -93.1339 317° Northwest 441 507 38,000  Level Kansas City Center
12:55PM 37.6844 -93.2397 317° Northwest 439 505 38,000  Level Kansas City Center
12:56PM 37.7753 -93.3489 316° Northwest 446 513 38,000 -840 Level Kansas City Center
12:57PM 37.8675 -93.4578 317° Northwest 449 517 36,300 -2,520 Descending Kansas City Center
12:58PM 37.9781 -93.5400 330° Northwest 460 529 32,800 -3,720 Descending Kansas City Center
12:59PM 38.0894 -93.6278 328° Northwest 465 535 28,700 -3,540 Descending Kansas City Center
01:00PM 38.2031 -93.7131 329° Northwest 470 541 25,600 -2,520 Descending Kansas City Center
01:01PM 38.3286 -93.8094 329° Northwest 444 511 23,500 -3,240 Descending Kansas City Center
01:02PM 38.4275 -93.8861 329° Northwest 419 482 19,000 -3,660 Descending Kansas City Center
01:03PM 38.5258 -93.9597 330° Northwest 434 499 16,000 -3,000 Descending Kansas City Center
01:04PM 38.6364 -94.0467 328° Northwest 420 483 12,800 -2,340 Descending Kansas City Center
01:05PM 38.7222 -94.1225 325° Northwest 393 452 11,200 -1,320 Descending Kansas City Center
01:06PM 38.8036 -94.2119 319° Northwest 346 398 10,100 -1,020 Descending Kansas City Center
01:07PM 38.8653 -94.2800 319° Northwest 309 356 9,200 -1,320 Descending Kansas City Center
01:08PM 38.9069 -94.3808 298° West 286 329 7,400 -1,500 Descending Kansas City Center
01:09PM 38.9517 -94.4578 307° West 280 322 6,100 -720 Descending Kansas City Center
01:10PM 39.0033 -94.5400 309° West 267 307 6,000 -360 Descending Kansas City Center
01:11PM 39.0464 -94.6108 308° West 264 304 5,400 -780 Descending Kansas City Center
01:12PM 39.0892 -94.6819 308° West 263 303 4,500 -780 Descending Kansas City Center
01:13PM 39.1408 -94.7511 314° West 241 277 3,800 -840 Descending Kansas City Center
01:14PM 39.1969 -94.7339 13° North 216 249 2,800 -1,020 Descending Kansas City Center
01:15PM 39.2489 -94.7194 12° North 167 192 1,700 -900 Descending Kansas City Center
01:16PM 39.2833 -94.7094 13° North 134 154 1,000 -720 Descending Kansas City Center
01:18PM 39.2833 -94.7000 339° North  Level FlightAware Approximate